sensor_id;sensor_type;location;lat;lon;timestamp;P1;durP1;ratioP1;P2;durP2;ratioP2
25950;SDS011;13748;52.240;6.002;2023-08-24T00:01:39;6.57;;;5.07;;
25950;SDS011;13748;52.240;6.002;2023-08-24T00:04:06;7.80;;;4.57;;
25950;SDS011;13748;52.240;6.002;2023-08-24T00:06:34;8.07;;;4.88;;
25950;SDS011;13748;52.240;6.002;2023-08-24T00:09:01;7.68;;;4.50;;
25950;SDS011;13748;52.240;6.002;2023-08-24T00:11:31;6.75;;;4.53;;
25950;SDS011;13748;52.240;6.002;2023-08-24T00:13:57;8.02;;;4.78;;
25950;SDS011;13748;52.240;6.002;2023-08-24T00:16:24;6.20;;;4.95;;
25950;SDS011;13748;52.240;6.002;2023-08-24T00:18:51;6.15;;;4.60;;
25950;SDS011;13748;52.240;6.002;2023-08-24T00:21:18;6.90;;;4.63;;
25950;SDS011;13748;52.240;6.002;2023-08-24T00:23:49;6.85;;;4.95;;
25950;SDS011;13748;52.240;6.002;2023-08-24T00:26:17;6.80;;;4.20;;
25950;SDS011;13748;52.240;6.002;2023-08-24T00:28:44;6.35;;;4.25;;
25950;SDS011;13748;52.240;6.002;2023-08-24T00:31:11;6.63;;;4.35;;
25950;SDS011;13748;52.240;6.002;2023-08-24T00:33:39;6.43;;;4.73;;
25950;SDS011;13748;52.240;6.002;2023-08-24T00:36:06;6.43;;;4.60;;
25950;SDS011;13748;52.240;6.002;2023-08-24T00:38:33;7.00;;;4.83;;
25950;SDS011;13748;52.240;6.002;2023-08-24T00:41:00;6.47;;;4.43;;
25950;SDS011;13748;52.240;6.002;2023-08-24T00:43:27;6.25;;;4.40;;
25950;SDS011;13748;52.240;6.002;2023-08-24T00:45:59;6.03;;;4.37;;
25950;SDS011;13748;52.240;6.002;2023-08-24T00:48:27;6.07;;;4.53;;
25950;SDS011;13748;52.240;6.002;2023-08-24T00:50:57;6.28;;;4.50;;
25950;SDS011;13748;52.240;6.002;2023-08-24T00:53:26;9.32;;;5.20;;
25950;SDS011;13748;52.240;6.002;2023-08-24T00:55:56;7.22;;;5.00;;
25950;SDS011;13748;52.240;6.002;2023-08-24T00:58:23;6.90;;;4.85;;
25950;SDS011;13748;52.240;6.002;2023-08-24T01:00:53;7.78;;;5.55;;
25950;SDS011;13748;52.240;6.002;2023-08-24T01:03:22;7.80;;;5.97;;
25950;SDS011;13748;52.240;6.002;2023-08-24T01:05:50;11.00;;;6.05;;
25950;SDS011;13748;52.240;6.002;2023-08-24T01:08:17;7.13;;;5.55;;
25950;SDS011;13748;52.240;6.002;2023-08-24T01:13:41;7.90;;;5.70;;
25950;SDS011;13748;52.240;6.002;2023-08-24T01:16:31;10.10;;;5.95;;
25950;SDS011;13748;52.240;6.002;2023-08-24T01:19:03;7.28;;;5.82;;
25950;SDS011;13748;52.240;6.002;2023-08-24T01:21:32;8.40;;;5.40;;
25950;SDS011;13748;52.240;6.002;2023-08-24T01:24:18;12.57;;;6.70;;
25950;SDS011;13748;52.240;6.002;2023-08-24T01:27:04;10.05;;;5.80;;
25950;SDS011;13748;52.240;6.002;2023-08-24T01:29:32;11.48;;;5.75;;
25950;SDS011;13748;52.240;6.002;2023-08-24T01:31:59;9.77;;;6.50;;
25950;SDS011;13748;52.240;6.002;2023-08-24T01:34:26;9.15;;;6.60;;
25950;SDS011;13748;52.240;6.002;2023-08-24T01:36:53;9.88;;;6.18;;
25950;SDS011;13748;52.240;6.002;2023-08-24T01:39:29;9.40;;;6.57;;
25950;SDS011;13748;52.240;6.002;2023-08-24T01:42:02;11.50;;;6.05;;
25950;SDS011;13748;52.240;6.002;2023-08-24T01:44:32;11.15;;;7.00;;
25950;SDS011;13748;52.240;6.002;2023-08-24T01:47:04;8.07;;;6.07;;
25950;SDS011;13748;52.240;6.002;2023-08-24T01:49:33;8.18;;;6.47;;
25950;SDS011;13748;52.240;6.002;2023-08-24T01:52:01;11.70;;;6.60;;
25950;SDS011;13748;52.240;6.002;2023-08-24T01:54:29;9.95;;;7.15;;
25950;SDS011;13748;52.240;6.002;2023-08-24T01:56:56;10.20;;;6.63;;
25950;SDS011;13748;52.240;6.002;2023-08-24T01:59:22;11.67;;;6.37;;
25950;SDS011;13748;52.240;6.002;2023-08-24T02:01:49;12.70;;;6.93;;
25950;SDS011;13748;52.240;6.002;2023-08-24T02:04:16;10.30;;;7.68;;
25950;SDS011;13748;52.240;6.002;2023-08-24T02:06:43;10.60;;;7.25;;
25950;SDS011;13748;52.240;6.002;2023-08-24T02:09:10;9.70;;;6.53;;
25950;SDS011;13748;52.240;6.002;2023-08-24T02:11:36;8.07;;;5.35;;
25950;SDS011;13748;52.240;6.002;2023-08-24T02:14:03;9.65;;;6.80;;
25950;SDS011;13748;52.240;6.002;2023-08-24T02:16:30;10.93;;;7.22;;
25950;SDS011;13748;52.240;6.002;2023-08-24T02:18:57;9.70;;;6.70;;
25950;SDS011;13748;52.240;6.002;2023-08-24T02:21:24;12.98;;;6.70;;
25950;SDS011;13748;52.240;6.002;2023-08-24T02:23:51;9.38;;;6.65;;
25950;SDS011;13748;52.240;6.002;2023-08-24T02:26:17;10.55;;;6.90;;
25950;SDS011;13748;52.240;6.002;2023-08-24T02:28:44;8.50;;;5.95;;
25950;SDS011;13748;52.240;6.002;2023-08-24T02:31:11;11.07;;;6.95;;
25950;SDS011;13748;52.240;6.002;2023-08-24T02:33:38;10.55;;;6.05;;
25950;SDS011;13748;52.240;6.002;2023-08-24T02:36:04;7.68;;;5.57;;
25950;SDS011;13748;52.240;6.002;2023-08-24T02:38:31;8.27;;;6.03;;
25950;SDS011;13748;52.240;6.002;2023-08-24T02:41:04;12.02;;;6.88;;
25950;SDS011;13748;52.240;6.002;2023-08-24T02:43:33;10.38;;;6.32;;
25950;SDS011;13748;52.240;6.002;2023-08-24T02:46:03;11.98;;;7.20;;
25950;SDS011;13748;52.240;6.002;2023-08-24T02:48:32;11.45;;;7.38;;
25950;SDS011;13748;52.240;6.002;2023-08-24T02:51:00;11.43;;;7.65;;
25950;SDS011;13748;52.240;6.002;2023-08-24T02:53:29;12.40;;;7.38;;
25950;SDS011;13748;52.240;6.002;2023-08-24T02:55:56;10.95;;;7.25;;
25950;SDS011;13748;52.240;6.002;2023-08-24T02:58:23;10.63;;;7.20;;
25950;SDS011;13748;52.240;6.002;2023-08-24T03:00:50;8.35;;;6.32;;
25950;SDS011;13748;52.240;6.002;2023-08-24T03:03:17;10.63;;;7.43;;
25950;SDS011;13748;52.240;6.002;2023-08-24T03:05:56;13.55;;;7.85;;
25950;SDS011;13748;52.240;6.002;2023-08-24T03:08:27;11.05;;;6.93;;
25950;SDS011;13748;52.240;6.002;2023-08-24T03:10:55;12.35;;;7.40;;
25950;SDS011;13748;52.240;6.002;2023-08-24T03:13:22;12.60;;;8.10;;
25950;SDS011;13748;52.240;6.002;2023-08-24T03:15:49;11.98;;;7.93;;
25950;SDS011;13748;52.240;6.002;2023-08-24T03:18:16;14.30;;;8.65;;
25950;SDS011;13748;52.240;6.002;2023-08-24T03:20:43;16.10;;;9.30;;
25950;SDS011;13748;52.240;6.002;2023-08-24T03:23:12;14.77;;;9.43;;
25950;SDS011;13748;52.240;6.002;2023-08-24T03:25:40;12.75;;;8.52;;
25950;SDS011;13748;52.240;6.002;2023-08-24T03:28:07;11.10;;;7.97;;
25950;SDS011;13748;52.240;6.002;2023-08-24T03:30:35;11.90;;;7.40;;
25950;SDS011;13748;52.240;6.002;2023-08-24T03:33:03;13.75;;;8.93;;
25950;SDS011;13748;52.240;6.002;2023-08-24T03:35:31;16.30;;;9.10;;
25950;SDS011;13748;52.240;6.002;2023-08-24T03:37:59;12.88;;;8.07;;
25950;SDS011;13748;52.240;6.002;2023-08-24T03:40:26;11.95;;;8.57;;
25950;SDS011;13748;52.240;6.002;2023-08-24T03:42:53;14.35;;;9.20;;
25950;SDS011;13748;52.240;6.002;2023-08-24T03:45:20;13.67;;;8.50;;
25950;SDS011;13748;52.240;6.002;2023-08-24T03:47:48;15.87;;;9.50;;
25950;SDS011;13748;52.240;6.002;2023-08-24T03:50:16;12.77;;;8.23;;
25950;SDS011;13748;52.240;6.002;2023-08-24T03:52:43;13.90;;;8.90;;
25950;SDS011;13748;52.240;6.002;2023-08-24T03:55:09;12.37;;;8.57;;
25950;SDS011;13748;52.240;6.002;2023-08-24T03:57:36;14.17;;;9.03;;
25950;SDS011;13748;52.240;6.002;2023-08-24T04:00:07;14.67;;;9.27;;
25950;SDS011;13748;52.240;6.002;2023-08-24T04:02:41;16.47;;;9.57;;
25950;SDS011;13748;52.240;6.002;2023-08-24T04:05:08;16.63;;;9.27;;
25950;SDS011;13748;52.240;6.002;2023-08-24T04:07:35;10.80;;;7.70;;
25950;SDS011;13748;52.240;6.002;2023-08-24T04:10:06;16.30;;;9.90;;
25950;SDS011;13748;52.240;6.002;2023-08-24T04:12:34;12.37;;;8.40;;
25950;SDS011;13748;52.240;6.002;2023-08-24T04:15:01;12.53;;;8.50;;
25950;SDS011;13748;52.240;6.002;2023-08-24T04:17:29;12.43;;;9.13;;
25950;SDS011;13748;52.240;6.002;2023-08-24T04:19:56;14.77;;;8.90;;
25950;SDS011;13748;52.240;6.002;2023-08-24T04:22:23;16.07;;;8.83;;
25950;SDS011;13748;52.240;6.002;2023-08-24T04:24:50;13.83;;;9.37;;
25950;SDS011;13748;52.240;6.002;2023-08-24T04:27:17;14.23;;;9.40;;
25950;SDS011;13748;52.240;6.002;2023-08-24T04:29:43;15.13;;;9.57;;
25950;SDS011;13748;52.240;6.002;2023-08-24T04:32:10;15.97;;;10.07;;
25950;SDS011;13748;52.240;6.002;2023-08-24T04:34:38;14.53;;;10.07;;
25950;SDS011;13748;52.240;6.002;2023-08-24T04:37:05;15.17;;;9.83;;
25950;SDS011;13748;52.240;6.002;2023-08-24T04:39:33;15.47;;;10.37;;
25950;SDS011;13748;52.240;6.002;2023-08-24T04:42:00;16.17;;;9.83;;
25950;SDS011;13748;52.240;6.002;2023-08-24T04:44:26;14.10;;;9.83;;
25950;SDS011;13748;52.240;6.002;2023-08-24T04:46:53;14.33;;;9.97;;
25950;SDS011;13748;52.240;6.002;2023-08-24T04:49:20;16.17;;;9.43;;
25950;SDS011;13748;52.240;6.002;2023-08-24T04:51:47;15.90;;;10.40;;
25950;SDS011;13748;52.240;6.002;2023-08-24T04:54:14;14.57;;;9.53;;
25950;SDS011;13748;52.240;6.002;2023-08-24T04:56:41;15.40;;;10.30;;
25950;SDS011;13748;52.240;6.002;2023-08-24T04:59:07;15.00;;;9.97;;
25950;SDS011;13748;52.240;6.002;2023-08-24T05:01:34;16.70;;;10.17;;
25950;SDS011;13748;52.240;6.002;2023-08-24T05:04:01;14.37;;;9.63;;
25950;SDS011;13748;52.240;6.002;2023-08-24T05:06:28;16.23;;;9.67;;
25950;SDS011;13748;52.240;6.002;2023-08-24T05:08:55;15.03;;;9.50;;
25950;SDS011;13748;52.240;6.002;2023-08-24T05:11:23;16.10;;;9.80;;
25950;SDS011;13748;52.240;6.002;2023-08-24T05:13:52;12.60;;;9.02;;
25950;SDS011;13748;52.240;6.002;2023-08-24T05:16:19;13.53;;;8.90;;
25950;SDS011;13748;52.240;6.002;2023-08-24T05:18:46;13.02;;;9.52;;
25950;SDS011;13748;52.240;6.002;2023-08-24T05:21:13;15.43;;;9.57;;
25950;SDS011;13748;52.240;6.002;2023-08-24T05:23:39;14.40;;;9.25;;
25950;SDS011;13748;52.240;6.002;2023-08-24T05:26:06;12.68;;;8.70;;
25950;SDS011;13748;52.240;6.002;2023-08-24T05:28:33;14.73;;;9.32;;
25950;SDS011;13748;52.240;6.002;2023-08-24T05:31:00;16.58;;;9.10;;
25950;SDS011;13748;52.240;6.002;2023-08-24T05:33:27;12.32;;;8.68;;
25950;SDS011;13748;52.240;6.002;2023-08-24T05:35:57;14.05;;;9.10;;
25950;SDS011;13748;52.240;6.002;2023-08-24T05:38:25;12.13;;;8.75;;
25950;SDS011;13748;52.240;6.002;2023-08-24T05:40:52;13.32;;;8.40;;
25950;SDS011;13748;52.240;6.002;2023-08-24T05:43:18;15.32;;;9.30;;
25950;SDS011;13748;52.240;6.002;2023-08-24T05:45:46;13.98;;;9.70;;
25950;SDS011;13748;52.240;6.002;2023-08-24T05:48:14;11.43;;;7.70;;
25950;SDS011;13748;52.240;6.002;2023-08-24T05:50:44;11.18;;;7.97;;
25950;SDS011;13748;52.240;6.002;2023-08-24T05:53:12;11.52;;;8.45;;
25950;SDS011;13748;52.240;6.002;2023-08-24T05:55:39;14.02;;;8.85;;
25950;SDS011;13748;52.240;6.002;2023-08-24T05:58:06;11.95;;;8.52;;
25950;SDS011;13748;52.240;6.002;2023-08-24T06:00:33;11.73;;;8.20;;
25950;SDS011;13748;52.240;6.002;2023-08-24T06:03:01;14.68;;;8.98;;
25950;SDS011;13748;52.240;6.002;2023-08-24T06:05:29;11.35;;;8.27;;
25950;SDS011;13748;52.240;6.002;2023-08-24T06:07:57;12.30;;;8.63;;
25950;SDS011;13748;52.240;6.002;2023-08-24T06:10:25;13.80;;;8.75;;
25950;SDS011;13748;52.240;6.002;2023-08-24T06:12:53;11.75;;;8.15;;
25950;SDS011;13748;52.240;6.002;2023-08-24T06:15:20;11.43;;;8.40;;
25950;SDS011;13748;52.240;6.002;2023-08-24T06:17:50;13.63;;;8.60;;
25950;SDS011;13748;52.240;6.002;2023-08-24T06:20:18;14.00;;;8.73;;
25950;SDS011;13748;52.240;6.002;2023-08-24T06:22:45;13.80;;;9.02;;
25950;SDS011;13748;52.240;6.002;2023-08-24T06:25:12;12.00;;;7.78;;
25950;SDS011;13748;52.240;6.002;2023-08-24T06:27:39;11.20;;;6.72;;
25950;SDS011;13748;52.240;6.002;2023-08-24T06:30:06;8.48;;;6.70;;
25950;SDS011;13748;52.240;6.002;2023-08-24T06:32:33;12.10;;;7.25;;
25950;SDS011;13748;52.240;6.002;2023-08-24T06:35:00;11.15;;;6.85;;
25950;SDS011;13748;52.240;6.002;2023-08-24T06:37:27;17.63;;;6.72;;
25950;SDS011;13748;52.240;6.002;2023-08-24T06:39:54;9.23;;;6.00;;
25950;SDS011;13748;52.240;6.002;2023-08-24T06:42:20;8.32;;;6.05;;
25950;SDS011;13748;52.240;6.002;2023-08-24T06:44:48;9.60;;;6.65;;
25950;SDS011;13748;52.240;6.002;2023-08-24T06:47:18;9.48;;;6.55;;
25950;SDS011;13748;52.240;6.002;2023-08-24T06:49:45;8.88;;;6.30;;
25950;SDS011;13748;52.240;6.002;2023-08-24T06:52:12;8.55;;;6.10;;
25950;SDS011;13748;52.240;6.002;2023-08-24T06:54:39;10.18;;;6.70;;
25950;SDS011;13748;52.240;6.002;2023-08-24T06:57:06;8.55;;;6.30;;
25950;SDS011;13748;52.240;6.002;2023-08-24T06:59:33;9.02;;;6.20;;
25950;SDS011;13748;52.240;6.002;2023-08-24T07:02:02;8.15;;;6.07;;
25950;SDS011;13748;52.240;6.002;2023-08-24T07:04:30;10.60;;;6.65;;
25950;SDS011;13748;52.240;6.002;2023-08-24T07:06:57;10.80;;;6.78;;
25950;SDS011;13748;52.240;6.002;2023-08-24T07:09:26;9.43;;;6.32;;
25950;SDS011;13748;52.240;6.002;2023-08-24T07:11:53;7.15;;;5.85;;
25950;SDS011;13748;52.240;6.002;2023-08-24T07:14:20;12.63;;;7.15;;
25950;SDS011;13748;52.240;6.002;2023-08-24T07:16:47;7.45;;;6.10;;
25950;SDS011;13748;52.240;6.002;2023-08-24T07:19:14;9.05;;;6.97;;
25950;SDS011;13748;52.240;6.002;2023-08-24T07:21:43;11.18;;;6.88;;
25950;SDS011;13748;52.240;6.002;2023-08-24T07:24:09;7.88;;;6.30;;
25950;SDS011;13748;52.240;6.002;2023-08-24T07:26:36;10.35;;;6.65;;
25950;SDS011;13748;52.240;6.002;2023-08-24T07:29:03;8.90;;;6.43;;
25950;SDS011;13748;52.240;6.002;2023-08-24T07:31:30;10.63;;;7.07;;
25950;SDS011;13748;52.240;6.002;2023-08-24T07:33:57;9.07;;;6.80;;
25950;SDS011;13748;52.240;6.002;2023-08-24T07:36:24;9.55;;;6.53;;
25950;SDS011;13748;52.240;6.002;2023-08-24T07:38:52;10.60;;;7.07;;
25950;SDS011;13748;52.240;6.002;2023-08-24T07:41:18;8.98;;;7.03;;
25950;SDS011;13748;52.240;6.002;2023-08-24T07:43:45;9.32;;;8.00;;
25950;SDS011;13748;52.240;6.002;2023-08-24T07:46:12;11.80;;;7.65;;
25950;SDS011;13748;52.240;6.002;2023-08-24T07:48:39;8.93;;;7.68;;
25950;SDS011;13748;52.240;6.002;2023-08-24T07:51:07;8.32;;;7.10;;
25950;SDS011;13748;52.240;6.002;2023-08-24T07:53:34;8.57;;;7.25;;
25950;SDS011;13748;52.240;6.002;2023-08-24T07:56:00;10.27;;;8.25;;
25950;SDS011;13748;52.240;6.002;2023-08-24T07:58:28;9.48;;;7.57;;
25950;SDS011;13748;52.240;6.002;2023-08-24T08:00:58;9.95;;;8.32;;
25950;SDS011;13748;52.240;6.002;2023-08-24T08:03:26;9.88;;;8.35;;
25950;SDS011;13748;52.240;6.002;2023-08-24T08:05:53;11.10;;;8.70;;
25950;SDS011;13748;52.240;6.002;2023-08-24T08:08:21;13.00;;;8.55;;
25950;SDS011;13748;52.240;6.002;2023-08-24T08:10:55;10.27;;;7.65;;
25950;SDS011;13748;52.240;6.002;2023-08-24T08:13:25;10.35;;;8.13;;
25950;SDS011;13748;52.240;6.002;2023-08-24T08:15:52;12.63;;;9.10;;
25950;SDS011;13748;52.240;6.002;2023-08-24T08:18:19;12.07;;;8.27;;
25950;SDS011;13748;52.240;6.002;2023-08-24T08:20:50;10.00;;;7.78;;
25950;SDS011;13748;52.240;6.002;2023-08-24T08:23:17;10.40;;;8.35;;
25950;SDS011;13748;52.240;6.002;2023-08-24T08:25:44;11.88;;;7.50;;
25950;SDS011;13748;52.240;6.002;2023-08-24T08:28:11;10.27;;;7.90;;
25950;SDS011;13748;52.240;6.002;2023-08-24T08:30:38;10.68;;;7.75;;
25950;SDS011;13748;52.240;6.002;2023-08-24T08:33:05;9.52;;;8.48;;
25950;SDS011;13748;52.240;6.002;2023-08-24T08:35:32;10.30;;;8.32;;
25950;SDS011;13748;52.240;6.002;2023-08-24T08:37:59;9.57;;;8.18;;
25950;SDS011;13748;52.240;6.002;2023-08-24T08:40:26;10.57;;;7.63;;
25950;SDS011;13748;52.240;6.002;2023-08-24T08:42:59;9.52;;;8.07;;
25950;SDS011;13748;52.240;6.002;2023-08-24T08:45:26;14.15;;;8.68;;
25950;SDS011;13748;52.240;6.002;2023-08-24T08:47:58;10.40;;;7.68;;
25950;SDS011;13748;52.240;6.002;2023-08-24T08:50:26;12.18;;;8.27;;
25950;SDS011;13748;52.240;6.002;2023-08-24T08:52:56;10.73;;;8.55;;
25950;SDS011;13748;52.240;6.002;2023-08-24T08:55:25;10.90;;;8.85;;
25950;SDS011;13748;52.240;6.002;2023-08-24T08:57:53;12.43;;;8.38;;
25950;SDS011;13748;52.240;6.002;2023-08-24T09:00:24;11.63;;;7.93;;
25950;SDS011;13748;52.240;6.002;2023-08-24T09:02:53;14.45;;;9.15;;
25950;SDS011;13748;52.240;6.002;2023-08-24T09:05:21;11.07;;;8.48;;
25950;SDS011;13748;52.240;6.002;2023-08-24T09:07:49;10.68;;;8.98;;
25950;SDS011;13748;52.240;6.002;2023-08-24T09:10:16;11.00;;;8.80;;
25950;SDS011;13748;52.240;6.002;2023-08-24T09:12:43;14.40;;;9.32;;
25950;SDS011;13748;52.240;6.002;2023-08-24T09:15:10;11.65;;;8.85;;
25950;SDS011;13748;52.240;6.002;2023-08-24T09:17:41;12.73;;;8.52;;
25950;SDS011;13748;52.240;6.002;2023-08-24T09:20:10;14.32;;;8.80;;
25950;SDS011;13748;52.240;6.002;2023-08-24T09:22:37;13.23;;;8.90;;
25950;SDS011;13748;52.240;6.002;2023-08-24T09:25:06;12.35;;;8.90;;
25950;SDS011;13748;52.240;6.002;2023-08-24T09:27:35;13.43;;;9.48;;
25950;SDS011;13748;52.240;6.002;2023-08-24T09:30:02;13.88;;;9.35;;
25950;SDS011;13748;52.240;6.002;2023-08-24T09:32:29;13.75;;;8.40;;
25950;SDS011;13748;52.240;6.002;2023-08-24T09:35:06;12.48;;;8.10;;
25950;SDS011;13748;52.240;6.002;2023-08-24T09:37:35;12.38;;;8.40;;
25950;SDS011;13748;52.240;6.002;2023-08-24T09:40:06;15.98;;;8.50;;
25950;SDS011;13748;52.240;6.002;2023-08-24T09:42:43;12.75;;;8.73;;
25950;SDS011;13748;52.240;6.002;2023-08-24T09:45:13;12.25;;;9.07;;
25950;SDS011;13748;52.240;6.002;2023-08-24T09:47:45;11.68;;;9.13;;
25950;SDS011;13748;52.240;6.002;2023-08-24T09:50:13;11.20;;;8.15;;
25950;SDS011;13748;52.240;6.002;2023-08-24T09:52:40;13.90;;;9.45;;
25950;SDS011;13748;52.240;6.002;2023-08-24T09:55:09;11.88;;;8.48;;
25950;SDS011;13748;52.240;6.002;2023-08-24T09:57:38;14.73;;;8.95;;
25950;SDS011;13748;52.240;6.002;2023-08-24T10:00:09;13.48;;;8.60;;
25950;SDS011;13748;52.240;6.002;2023-08-24T10:02:37;12.93;;;8.27;;
25950;SDS011;13748;52.240;6.002;2023-08-24T10:05:16;13.75;;;8.65;;
25950;SDS011;13748;52.240;6.002;2023-08-24T10:07:55;11.55;;;8.60;;
25950;SDS011;13748;52.240;6.002;2023-08-24T10:10:23;12.00;;;9.07;;
25950;SDS011;13748;52.240;6.002;2023-08-24T10:12:52;14.30;;;8.55;;
25950;SDS011;13748;52.240;6.002;2023-08-24T10:15:26;11.60;;;7.95;;
25950;SDS011;13748;52.240;6.002;2023-08-24T10:17:53;11.50;;;7.90;;
25950;SDS011;13748;52.240;6.002;2023-08-24T10:20:22;10.30;;;7.93;;
25950;SDS011;13748;52.240;6.002;2023-08-24T10:22:50;9.77;;;7.68;;
25950;SDS011;13748;52.240;6.002;2023-08-24T10:25:18;14.80;;;8.80;;
25950;SDS011;13748;52.240;6.002;2023-08-24T10:27:46;11.57;;;7.85;;
25950;SDS011;13748;52.240;6.002;2023-08-24T10:30:16;11.48;;;7.32;;
25950;SDS011;13748;52.240;6.002;2023-08-24T10:32:45;12.35;;;8.23;;
25950;SDS011;13748;52.240;6.002;2023-08-24T10:35:15;9.73;;;7.88;;
25950;SDS011;13748;52.240;6.002;2023-08-24T10:37:44;12.18;;;8.52;;
25950;SDS011;13748;52.240;6.002;2023-08-24T10:40:13;11.85;;;8.02;;
25950;SDS011;13748;52.240;6.002;2023-08-24T10:42:56;11.68;;;7.90;;
25950;SDS011;13748;52.240;6.002;2023-08-24T10:45:23;12.10;;;7.50;;
25950;SDS011;13748;52.240;6.002;2023-08-24T10:47:51;9.48;;;6.95;;
25950;SDS011;13748;52.240;6.002;2023-08-24T10:50:21;9.35;;;6.18;;
25950;SDS011;13748;52.240;6.002;2023-08-24T10:52:48;7.75;;;6.25;;
25950;SDS011;13748;52.240;6.002;2023-08-24T10:55:22;9.38;;;6.70;;
25950;SDS011;13748;52.240;6.002;2023-08-24T10:57:58;9.45;;;7.43;;
25950;SDS011;13748;52.240;6.002;2023-08-24T11:00:27;13.00;;;7.28;;
25950;SDS011;13748;52.240;6.002;2023-08-24T11:02:55;11.05;;;7.53;;
25950;SDS011;13748;52.240;6.002;2023-08-24T11:05:27;10.10;;;6.88;;
25950;SDS011;13748;52.240;6.002;2023-08-24T11:08:01;13.27;;;7.00;;
25950;SDS011;13748;52.240;6.002;2023-08-24T11:13:09;8.68;;;6.85;;
25950;SDS011;13748;52.240;6.002;2023-08-24T11:15:41;10.32;;;6.85;;
25950;SDS011;13748;52.240;6.002;2023-08-24T11:18:25;9.77;;;6.90;;
25950;SDS011;13748;52.240;6.002;2023-08-24T11:23:26;8.70;;;7.05;;
25950;SDS011;13748;52.240;6.002;2023-08-24T11:25:53;9.73;;;7.38;;
25950;SDS011;13748;52.240;6.002;2023-08-24T11:28:23;10.25;;;7.70;;
25950;SDS011;13748;52.240;6.002;2023-08-24T11:30:51;10.15;;;7.10;;
25950;SDS011;13748;52.240;6.002;2023-08-24T11:33:31;11.38;;;7.40;;
25950;SDS011;13748;52.240;6.002;2023-08-24T11:35:59;13.38;;;7.72;;
25950;SDS011;13748;52.240;6.002;2023-08-24T11:38:35;11.70;;;7.50;;
25950;SDS011;13748;52.240;6.002;2023-08-24T11:43:44;10.82;;;7.60;;
25950;SDS011;13748;52.240;6.002;2023-08-24T11:46:12;11.52;;;7.80;;
25950;SDS011;13748;52.240;6.002;2023-08-24T11:48:39;10.45;;;7.57;;
25950;SDS011;13748;52.240;6.002;2023-08-24T11:51:10;13.35;;;8.10;;
25950;SDS011;13748;52.240;6.002;2023-08-24T11:53:42;11.98;;;7.82;;
25950;SDS011;13748;52.240;6.002;2023-08-24T11:56:10;11.77;;;8.70;;
25950;SDS011;13748;52.240;6.002;2023-08-24T11:58:38;9.35;;;6.97;;
25950;SDS011;13748;52.240;6.002;2023-08-24T12:01:07;10.23;;;7.05;;
25950;SDS011;13748;52.240;6.002;2023-08-24T12:03:36;12.70;;;8.88;;
25950;SDS011;13748;52.240;6.002;2023-08-24T12:06:10;11.82;;;8.15;;
25950;SDS011;13748;52.240;6.002;2023-08-24T12:08:41;15.13;;;7.90;;
25950;SDS011;13748;52.240;6.002;2023-08-24T12:11:10;12.45;;;7.93;;
25950;SDS011;13748;52.240;6.002;2023-08-24T12:13:46;10.55;;;7.20;;
25950;SDS011;13748;52.240;6.002;2023-08-24T12:16:15;10.50;;;7.93;;
25950;SDS011;13748;52.240;6.002;2023-08-24T12:18:46;13.45;;;8.00;;
25950;SDS011;13748;52.240;6.002;2023-08-24T12:21:17;13.85;;;9.23;;
25950;SDS011;13748;52.240;6.002;2023-08-24T12:23:58;10.80;;;8.13;;
25950;SDS011;13748;52.240;6.002;2023-08-24T12:26:26;12.85;;;8.70;;
25950;SDS011;13748;52.240;6.002;2023-08-24T12:28:55;13.63;;;9.13;;
25950;SDS011;13748;52.240;6.002;2023-08-24T12:31:26;12.57;;;9.23;;
25950;SDS011;13748;52.240;6.002;2023-08-24T12:34:03;13.43;;;9.40;;
25950;SDS011;13748;52.240;6.002;2023-08-24T12:36:32;12.63;;;9.20;;
25950;SDS011;13748;52.240;6.002;2023-08-24T12:38:59;12.85;;;9.63;;
25950;SDS011;13748;52.240;6.002;2023-08-24T12:41:26;12.93;;;9.85;;
25950;SDS011;13748;52.240;6.002;2023-08-24T12:43:53;14.13;;;10.70;;
25950;SDS011;13748;52.240;6.002;2023-08-24T12:46:20;13.25;;;10.13;;
25950;SDS011;13748;52.240;6.002;2023-08-24T12:48:47;14.63;;;9.63;;
25950;SDS011;13748;52.240;6.002;2023-08-24T12:51:14;13.60;;;9.63;;
25950;SDS011;13748;52.240;6.002;2023-08-24T12:53:41;15.05;;;9.45;;
25950;SDS011;13748;52.240;6.002;2023-08-24T12:56:10;14.63;;;9.93;;
25950;SDS011;13748;52.240;6.002;2023-08-24T12:58:37;14.20;;;9.55;;
25950;SDS011;13748;52.240;6.002;2023-08-24T13:01:04;12.18;;;9.63;;
25950;SDS011;13748;52.240;6.002;2023-08-24T13:03:31;11.30;;;9.23;;
25950;SDS011;13748;52.240;6.002;2023-08-24T13:06:01;11.80;;;9.05;;
25950;SDS011;13748;52.240;6.002;2023-08-24T13:08:48;12.43;;;9.27;;
25950;SDS011;13748;52.240;6.002;2023-08-24T13:11:15;10.57;;;8.25;;
25950;SDS011;13748;52.240;6.002;2023-08-24T13:13:41;11.48;;;7.50;;
25950;SDS011;13748;52.240;6.002;2023-08-24T13:16:08;10.98;;;8.20;;
25950;SDS011;13748;52.240;6.002;2023-08-24T13:18:35;12.23;;;7.97;;
25950;SDS011;13748;52.240;6.002;2023-08-24T13:21:02;9.75;;;7.07;;
25950;SDS011;13748;52.240;6.002;2023-08-24T13:23:30;10.13;;;7.95;;
25950;SDS011;13748;52.240;6.002;2023-08-24T13:25:57;11.40;;;7.15;;
25950;SDS011;13748;52.240;6.002;2023-08-24T13:28:25;12.13;;;8.00;;
25950;SDS011;13748;52.240;6.002;2023-08-24T13:30:52;13.82;;;8.20;;
25950;SDS011;13748;52.240;6.002;2023-08-24T13:33:19;11.25;;;6.80;;
25950;SDS011;13748;52.240;6.002;2023-08-24T13:35:46;11.38;;;7.72;;
25950;SDS011;13748;52.240;6.002;2023-08-24T13:38:13;19.95;;;8.15;;
25950;SDS011;13748;52.240;6.002;2023-08-24T13:40:40;10.55;;;6.88;;
25950;SDS011;13748;52.240;6.002;2023-08-24T13:43:06;10.35;;;6.93;;
25950;SDS011;13748;52.240;6.002;2023-08-24T13:45:33;10.63;;;6.85;;
25950;SDS011;13748;52.240;6.002;2023-08-24T13:48:04;7.65;;;6.50;;
25950;SDS011;13748;52.240;6.002;2023-08-24T13:50:31;9.02;;;6.40;;
25950;SDS011;13748;52.240;6.002;2023-08-24T13:52:58;7.65;;;6.80;;
25950;SDS011;13748;52.240;6.002;2023-08-24T13:55:25;8.23;;;5.82;;
25950;SDS011;13748;52.240;6.002;2023-08-24T13:57:51;10.30;;;6.78;;
25950;SDS011;13748;52.240;6.002;2023-08-24T14:00:19;10.65;;;6.85;;
25950;SDS011;13748;52.240;6.002;2023-08-24T14:02:46;10.88;;;6.07;;
25950;SDS011;13748;52.240;6.002;2023-08-24T14:05:15;9.00;;;5.82;;
25950;SDS011;13748;52.240;6.002;2023-08-24T14:07:41;6.65;;;5.30;;
25950;SDS011;13748;52.240;6.002;2023-08-24T14:10:08;9.52;;;5.75;;
25950;SDS011;13748;52.240;6.002;2023-08-24T14:12:35;9.35;;;6.30;;
25950;SDS011;13748;52.240;6.002;2023-08-24T14:15:02;10.07;;;6.53;;
25950;SDS011;13748;52.240;6.002;2023-08-24T14:17:29;8.25;;;6.40;;
25950;SDS011;13748;52.240;6.002;2023-08-24T14:19:56;9.68;;;6.57;;
25950;SDS011;13748;52.240;6.002;2023-08-24T14:22:24;8.95;;;6.05;;
25950;SDS011;13748;52.240;6.002;2023-08-24T14:24:51;7.45;;;6.03;;
25950;SDS011;13748;52.240;6.002;2023-08-24T14:27:18;10.43;;;6.65;;
25950;SDS011;13748;52.240;6.002;2023-08-24T14:29:45;9.23;;;6.70;;
25950;SDS011;13748;52.240;6.002;2023-08-24T14:32:12;8.52;;;6.10;;
25950;SDS011;13748;52.240;6.002;2023-08-24T14:34:39;10.15;;;6.90;;
25950;SDS011;13748;52.240;6.002;2023-08-24T14:37:06;11.60;;;6.05;;
25950;SDS011;13748;52.240;6.002;2023-08-24T14:39:32;11.15;;;7.40;;
25950;SDS011;13748;52.240;6.002;2023-08-24T14:41:59;9.07;;;7.20;;
25950;SDS011;13748;52.240;6.002;2023-08-24T14:44:29;9.77;;;6.90;;
25950;SDS011;13748;52.240;6.002;2023-08-24T14:46:55;10.32;;;7.50;;
25950;SDS011;13748;52.240;6.002;2023-08-24T14:49:22;13.10;;;7.50;;
25950;SDS011;13748;52.240;6.002;2023-08-24T14:51:49;10.15;;;7.20;;
25950;SDS011;13748;52.240;6.002;2023-08-24T14:54:16;12.40;;;7.88;;
25950;SDS011;13748;52.240;6.002;2023-08-24T14:56:43;10.85;;;6.50;;